createdAt,value
2019-02-12T03:16:45.044Z,10.15
2019-02-12T03:19:14.134Z,9.55
2019-02-12T03:21:44.207Z,11.43
2019-02-12T03:24:14.195Z,9.67
2019-02-12T03:26:54.407Z,9.50
2019-02-12T03:29:27.478Z,8.88
2019-02-12T03:31:56.555Z,9.80
2019-02-12T03:37:01.318Z,10.57
2019-02-12T03:39:30.360Z,8.47
2019-02-12T03:42:00.078Z,8.63
2019-02-12T03:44:30.207Z,9.83
2019-02-12T03:46:59.232Z,8.00
2019-02-12T03:52:12.606Z,9.45
2019-02-12T03:54:35.079Z,11.90
2019-02-12T03:57:04.129Z,6.93
2019-02-12T03:59:33.170Z,7.10
2019-02-12T04:02:03.291Z,11.40
2019-02-12T04:04:32.349Z,7.67
2019-02-12T04:07:01.404Z,7.83
2019-02-12T04:12:06.125Z,12.25
2019-02-12T04:14:36.387Z,9.32
2019-02-12T04:19:43.693Z,10.68
2019-02-12T04:22:22.300Z,7.90
2019-02-12T04:24:44.644Z,11.67
2019-02-12T04:27:13.678Z,6.47
2019-02-12T04:29:42.709Z,7.73
2019-02-12T04:32:12.718Z,13.05
2019-02-12T04:34:44.367Z,10.80
2019-02-12T04:37:14.412Z,10.00
2019-02-12T04:39:43.427Z,9.53
2019-02-12T04:42:15.444Z,8.87
2019-02-12T04:44:44.488Z,9.43
2019-02-12T04:47:15.183Z,9.00
2019-02-12T04:49:44.275Z,7.40
2019-02-12T04:52:13.367Z,11.30
2019-02-12T04:57:20.515Z,8.35
2019-02-12T04:59:49.578Z,7.50
2019-02-12T05:02:18.598Z,12.10
2019-02-12T05:04:47.643Z,7.40
2019-02-12T05:07:17.605Z,9.90
2019-02-12T05:09:46.969Z,8.93
2019-02-12T05:12:16.927Z,8.23
2019-02-12T05:17:21.773Z,12.45
2019-02-12T05:19:51.299Z,6.77
2019-02-12T05:22:21.273Z,6.47
2019-02-12T05:24:50.301Z,6.20
2019-02-12T05:27:20.693Z,10.55
2019-02-12T05:29:49.767Z,9.10
2019-02-12T05:32:18.798Z,12.37
2019-02-12T05:34:47.857Z,7.23
2019-02-12T05:37:16.880Z,11.63
2019-02-12T05:39:46.421Z,12.73
2019-02-12T05:42:16.459Z,12.70
2019-02-12T05:44:45.501Z,12.15
2019-02-12T05:47:15.471Z,7.73
2019-02-12T05:49:44.508Z,11.17
2019-02-12T05:52:16.381Z,8.70
2019-02-12T05:54:45.440Z,10.70
2019-02-12T05:57:14.484Z,9.20
2019-02-12T05:59:46.978Z,9.20
2019-02-12T06:02:14.797Z,8.40
2019-02-12T06:04:43.825Z,7.97
2019-02-12T06:07:16.364Z,5.47
2019-02-12T06:09:45.419Z,9.37
2019-02-12T06:12:17.251Z,7.23
2019-02-12T06:14:46.325Z,11.70
2019-02-12T06:17:16.359Z,7.20
2019-02-12T06:19:45.429Z,9.30
2019-02-12T06:22:15.284Z,12.02
2019-02-12T06:24:46.623Z,10.63
2019-02-12T06:27:16.934Z,18.07
2019-02-12T06:29:46.157Z,7.90
2019-02-12T06:32:16.007Z,9.37
2019-02-12T06:34:47.436Z,6.57
2019-02-12T06:37:16.972Z,8.90
2019-02-12T06:39:47.091Z,6.70
2019-02-12T06:42:16.083Z,8.03
2019-02-12T06:45:01.058Z,6.80
2019-02-12T06:47:31.540Z,7.47
2019-02-12T06:50:00.580Z,8.80
2019-02-12T06:52:30.921Z,8.40
2019-02-12T06:55:01.832Z,8.20
2019-02-12T06:57:33.457Z,8.00
2019-02-12T07:00:02.568Z,10.90
2019-02-12T07:02:52.635Z,9.77
2019-02-12T07:17:43.451Z,7.40
2019-02-12T07:20:19.291Z,7.10
2019-02-12T07:26:35.182Z,6.62
2019-02-12T07:41:20.443Z,5.30
2019-02-12T07:53:13.403Z,9.68
2019-02-12T07:55:48.163Z,6.53
2019-02-12T08:02:02.095Z,7.15
2019-02-12T08:10:35.693Z,10.40
2019-02-12T08:13:17.349Z,4.73
2019-02-12T08:16:17.886Z,3.90
2019-02-12T08:22:14.157Z,7.10
2019-02-12T08:25:13.683Z,11.57
2019-02-12T08:28:08.100Z,6.80
2019-02-12T08:30:44.377Z,4.90
2019-02-12T08:36:39.243Z,6.37
2019-02-12T08:42:32.263Z,9.05
2019-02-12T08:53:52.800Z,9.45
2019-02-12T08:56:24.779Z,11.30
2019-02-12T08:59:19.874Z,10.07
2019-02-12T09:01:56.507Z,5.20
2019-02-12T09:04:35.022Z,8.03
2019-02-12T09:12:22.713Z,8.77
2019-02-12T09:15:19.148Z,6.57
2019-02-12T09:21:10.132Z,9.18
2019-02-12T09:24:00.400Z,8.63
2019-02-12T09:41:01.639Z,8.30
2019-02-12T09:55:27.672Z,7.62
2019-02-12T09:58:11.303Z,11.97
2019-02-12T10:00:46.213Z,6.90
2019-02-12T10:12:42.581Z,15.25
2019-02-12T10:15:48.051Z,6.87
2019-02-12T10:30:23.844Z,8.90
2019-02-12T10:35:29.818Z,5.20
2019-02-12T10:37:58.855Z,6.43
2019-02-12T10:40:28.859Z,8.85
2019-02-12T10:43:06.636Z,7.20
2019-02-12T10:48:12.249Z,7.10
2019-02-12T10:50:41.292Z,6.68
2019-02-12T10:53:11.084Z,4.67
2019-02-12T10:55:40.133Z,5.90
2019-02-12T10:58:09.697Z,5.70
2019-02-12T11:00:38.926Z,6.73
2019-02-12T11:03:07.959Z,15.07
2019-02-12T11:05:45.532Z,8.43
2019-02-12T11:08:14.586Z,10.23
2019-02-12T11:10:45.120Z,8.25
2019-02-12T11:13:12.650Z,9.17
2019-02-12T11:15:41.691Z,6.77
2019-02-12T11:18:11.258Z,6.00
2019-02-12T11:20:40.352Z,8.50
2019-02-12T11:23:10.920Z,5.63
2019-02-12T11:25:42.542Z,4.50
2019-02-12T11:28:11.610Z,8.93
2019-02-12T11:30:41.428Z,10.53
2019-02-12T11:33:23.475Z,8.13
2019-02-12T11:35:54.647Z,7.00
2019-02-12T11:38:24.928Z,4.00
2019-02-12T11:40:59.720Z,5.80
2019-02-12T11:43:30.508Z,7.93
2019-02-12T11:48:34.765Z,7.20
2019-02-12T11:51:05.560Z,7.53
2019-02-12T11:53:38.344Z,5.00
2019-02-12T12:01:23.486Z,7.43
2019-02-12T12:03:53.334Z,9.20
2019-02-12T12:09:04.087Z,6.20
2019-02-12T12:11:40.430Z,6.60
2019-02-12T12:14:09.464Z,4.10
2019-02-12T12:16:39.206Z,3.57
2019-02-12T12:19:08.362Z,3.70
2019-02-12T12:21:37.422Z,4.83
2019-02-12T12:24:06.487Z,6.30
2019-02-12T12:26:35.520Z,5.90
2019-02-12T12:29:04.964Z,5.17
2019-02-12T12:34:09.736Z,6.87
2019-02-12T12:41:58.244Z,6.97
2019-02-12T12:44:27.293Z,6.13
2019-02-12T12:46:57.336Z,5.60
2019-02-12T12:52:02.100Z,4.65
2019-02-12T12:54:32.023Z,4.60
2019-02-12T12:57:02.010Z,3.70
2019-02-12T12:59:31.050Z,5.07
2019-02-12T13:02:00.626Z,3.30
2019-02-12T13:04:29.708Z,6.35
2019-02-12T13:07:02.681Z,5.90
2019-02-12T13:09:33.803Z,6.87
2019-02-12T13:14:39.988Z,7.25
2019-02-12T13:17:09.011Z,5.53
2019-02-12T13:19:38.034Z,5.07
2019-02-12T13:22:07.712Z,4.97
2019-02-12T13:24:37.151Z,3.13
2019-02-12T13:27:06.191Z,3.20
2019-02-12T13:29:35.323Z,6.30
2019-02-12T13:32:04.346Z,4.00
2019-02-12T13:34:34.031Z,6.70
2019-02-12T13:39:18.264Z,4.50
2019-02-12T13:44:34.883Z,4.60
2019-02-12T13:47:03.944Z,6.90
2019-02-12T13:49:33.955Z,3.50
2019-02-12T13:52:03.009Z,4.27
2019-02-12T13:54:33.327Z,11.70
2019-02-12T13:57:02.499Z,5.90
2019-02-12T13:59:33.628Z,7.43
2019-02-12T14:04:37.275Z,8.30
2019-02-12T14:07:12.702Z,8.23
2019-02-12T14:12:19.426Z,7.40
2019-02-12T14:14:48.442Z,9.43
2019-02-12T14:17:17.502Z,8.80
2019-02-12T14:19:47.090Z,7.70
2019-02-12T14:22:16.152Z,6.87
2019-02-12T14:24:46.116Z,8.13
2019-02-12T14:27:15.970Z,7.60
2019-02-12T14:29:45.230Z,8.73
2019-02-12T14:32:14.253Z,4.83
2019-02-12T14:34:48.739Z,10.60
2019-02-12T14:37:17.780Z,9.00
2019-02-12T14:39:47.435Z,7.20
2019-02-12T14:42:16.495Z,8.73
2019-02-12T14:44:45.623Z,6.35
2019-02-12T14:47:14.653Z,7.33
2019-02-12T14:49:43.675Z,10.20
2019-02-12T14:52:13.314Z,9.65
2019-02-12T14:54:47.401Z,9.00
2019-02-12T14:57:21.065Z,6.30
2019-02-12T15:02:26.169Z,11.32
2019-02-12T15:05:00.393Z,12.45
2019-02-12T15:07:24.252Z,6.00
2019-02-12T15:09:55.291Z,7.23
2019-02-12T15:12:24.799Z,6.33
2019-02-12T15:14:53.835Z,4.53
2019-02-12T15:17:22.891Z,7.07
2019-02-12T15:19:51.934Z,5.70
2019-02-12T15:22:25.194Z,5.75
2019-02-12T15:24:54.489Z,5.87
2019-02-12T15:27:30.856Z,6.93
2019-02-12T15:29:59.923Z,5.97
2019-02-12T15:32:32.635Z,3.50
2019-02-12T15:35:02.493Z,5.80
2019-02-12T15:37:33.443Z,13.40
2019-02-12T15:40:02.486Z,3.30
2019-02-12T15:42:31.510Z,3.67
2019-02-12T15:45:02.449Z,3.30
2019-02-12T15:47:33.411Z,4.23
2019-02-12T15:50:02.439Z,5.00
2019-02-12T15:52:33.246Z,4.60
2019-02-12T15:55:02.277Z,10.63
2019-02-12T15:57:40.532Z,3.20
2019-02-12T16:00:18.648Z,7.10
2019-02-12T16:02:47.454Z,5.47
2019-02-12T16:05:16.503Z,6.93
2019-02-12T16:07:47.480Z,8.00
2019-02-12T16:10:16.966Z,5.33
2019-02-12T16:12:46.606Z,5.73
2019-02-12T16:15:16.032Z,3.93
2019-02-12T16:18:00.710Z,6.67
2019-02-12T16:20:30.985Z,6.80
2019-02-12T16:23:00.723Z,3.75
2019-02-12T16:25:30.704Z,7.13
2019-02-12T16:27:59.750Z,5.90
2019-02-12T16:30:33.231Z,5.90
2019-02-12T16:33:02.298Z,5.80
2019-02-12T16:35:31.314Z,3.57
2019-02-12T16:38:00.367Z,7.50
2019-02-12T16:40:35.351Z,3.90
2019-02-12T16:43:06.412Z,7.40
2019-02-12T16:48:30.990Z,8.60
2019-02-12T16:51:01.002Z,7.63
2019-02-12T16:53:30.032Z,8.00
2019-02-12T16:56:07.874Z,4.97
2019-02-12T16:58:28.916Z,3.33
2019-02-12T17:00:57.959Z,5.03
2019-02-12T17:03:33.683Z,4.47
2019-02-12T17:06:03.175Z,3.20
2019-02-12T17:08:32.208Z,8.00
2019-02-12T17:11:01.269Z,5.33
2019-02-12T17:13:30.345Z,5.10
2019-02-12T17:16:00.082Z,5.10
2019-02-12T17:18:29.131Z,8.67
2019-02-12T17:20:58.220Z,11.00
2019-02-12T17:23:27.288Z,9.03
2019-02-12T17:25:56.320Z,9.23
2019-02-12T17:28:26.601Z,9.30
2019-02-12T17:30:59.483Z,5.00
2019-02-12T17:33:28.503Z,9.10
2019-02-12T17:35:57.943Z,10.48
2019-02-12T17:38:27.003Z,9.53
2019-02-12T17:40:56.078Z,10.60
2019-02-12T17:43:25.106Z,9.83
2019-02-12T17:46:02.308Z,7.07
2019-02-12T17:48:34.625Z,10.00
2019-02-12T17:51:03.671Z,6.50
2019-02-12T17:53:32.715Z,6.67
2019-02-12T17:56:01.747Z,6.47
2019-02-12T17:58:30.797Z,8.73
2019-02-12T18:01:00.456Z,9.80
2019-02-12T18:03:29.524Z,34.90
2019-02-12T18:05:58.573Z,41.80
2019-02-12T18:08:28.165Z,11.40
2019-02-12T18:11:01.259Z,8.87
2019-02-12T18:13:30.321Z,16.07
2019-02-12T18:18:34.567Z,13.88
2019-02-12T18:21:04.209Z,12.75
2019-02-12T18:23:34.266Z,13.07
2019-02-12T18:26:03.355Z,13.50
2019-02-12T18:28:32.442Z,8.50
2019-02-12T18:33:37.946Z,11.15
2019-02-12T18:36:07.093Z,13.65
2019-02-12T18:38:36.119Z,9.57
2019-02-12T18:41:07.104Z,11.05
2019-02-12T18:46:11.685Z,13.70
2019-02-12T18:51:16.466Z,6.60
2019-02-12T18:53:47.398Z,7.60
2019-02-12T18:56:16.480Z,11.20
2019-02-12T18:58:48.663Z,6.87
2019-02-12T19:01:17.719Z,7.40
2019-02-12T19:03:46.775Z,9.10
2019-02-12T19:06:16.290Z,6.27
2019-02-12T19:08:47.400Z,5.37
2019-02-12T19:11:16.475Z,9.77
2019-02-12T19:13:53.856Z,9.48
2019-02-12T19:16:22.935Z,11.33
2019-02-12T19:18:52.109Z,13.68
2019-02-12T19:21:21.168Z,8.33
2019-02-12T19:23:50.405Z,7.23
2019-02-12T19:26:20.270Z,13.27
2019-02-12T19:28:49.351Z,10.77
2019-02-12T19:31:19.348Z,11.82
2019-02-12T19:33:55.132Z,10.30
2019-02-12T19:36:24.298Z,7.90
2019-02-12T19:38:53.683Z,12.88
2019-02-12T19:41:22.769Z,9.50
2019-02-12T19:43:52.837Z,13.07
2019-02-12T19:46:23.003Z,18.15
2019-02-12T19:51:31.745Z,18.30
2019-02-12T19:54:00.794Z,12.20
2019-02-12T19:56:29.843Z,9.17
2019-02-12T19:58:59.480Z,13.53
2019-02-12T20:01:28.582Z,13.20
2019-02-12T20:03:57.680Z,12.90
2019-02-12T20:06:27.611Z,15.87
2019-02-12T20:08:57.636Z,14.50
2019-02-12T20:11:28.179Z,14.07
2019-02-12T20:16:34.422Z,15.60
2019-02-12T20:21:45.498Z,17.10
2019-02-12T20:24:14.991Z,14.90
2019-02-12T20:26:44.135Z,12.13
2019-02-12T20:29:13.187Z,13.85
2019-02-12T20:31:43.869Z,14.68
2019-02-12T20:34:12.954Z,12.10
2019-02-12T20:36:42.004Z,13.55
2019-02-12T20:39:11.089Z,15.65
2019-02-12T20:41:40.165Z,12.57
2019-02-12T20:44:09.745Z,11.88
2019-02-12T20:46:38.824Z,12.88
2019-02-12T20:49:09.830Z,11.33
2019-02-12T20:51:39.883Z,11.80
2019-02-12T20:54:08.915Z,11.27
2019-02-12T20:56:39.990Z,12.13
2019-02-12T20:59:09.058Z,15.15
2019-02-12T21:01:40.054Z,14.67
2019-02-12T21:04:09.602Z,13.98
2019-02-12T21:06:38.643Z,10.17
2019-02-12T21:09:07.715Z,14.77
2019-02-12T21:11:36.755Z,13.30
2019-02-12T21:14:06.307Z,13.60
2019-02-12T21:16:35.851Z,11.87
2019-02-12T21:19:05.179Z,13.20
2019-02-12T21:21:35.403Z,15.60
2019-02-12T21:24:06.150Z,12.27
2019-02-12T21:26:35.281Z,16.15
2019-02-12T21:29:06.742Z,13.07
2019-02-12T21:31:35.791Z,14.30
2019-02-12T21:34:04.860Z,12.63
2019-02-12T21:39:19.777Z,14.80
2019-02-12T21:41:49.575Z,12.80
2019-02-12T21:44:19.977Z,18.00
2019-02-12T21:46:50.668Z,14.47
2019-02-12T21:49:21.411Z,14.02
2019-02-12T21:54:27.567Z,13.47
2019-02-12T21:56:57.166Z,15.93
2019-02-12T21:59:26.227Z,10.70
2019-02-12T22:04:35.471Z,13.62
2019-02-12T22:07:04.826Z,12.43
2019-02-12T22:10:26.385Z,13.88
2019-02-12T22:12:55.664Z,10.53
2019-02-12T22:15:28.812Z,11.93
2019-02-12T22:17:58.225Z,8.40
2019-02-12T22:20:32.367Z,11.55
2019-02-12T22:23:02.084Z,13.40
2019-02-12T22:25:32.269Z,12.75
2019-02-12T22:28:03.051Z,9.03
2019-02-12T22:30:36.701Z,11.65
2019-02-12T22:33:06.434Z,14.45
2019-02-12T22:35:42.545Z,11.70
2019-02-12T22:38:11.845Z,13.85
2019-02-12T22:40:40.910Z,12.10
2019-02-12T22:43:11.076Z,14.48
2019-02-12T22:45:40.301Z,12.85
2019-02-12T22:48:19.441Z,11.40
2019-02-12T22:50:48.486Z,12.65
2019-02-12T22:53:17.648Z,18.67
2019-02-12T22:55:46.724Z,12.48
2019-02-12T22:58:15.779Z,10.13
2019-02-12T23:00:54.813Z,12.63
2019-02-12T23:03:24.044Z,14.60
2019-02-12T23:05:53.279Z,15.63
2019-02-12T23:08:23.353Z,9.87
2019-02-12T23:13:39.835Z,14.50
2019-02-12T23:16:09.103Z,13.03
2019-02-12T23:18:43.383Z,13.85
2019-02-12T23:21:12.937Z,10.63
2019-02-12T23:23:42.039Z,14.33
2019-02-12T23:26:12.103Z,13.43
2019-02-12T23:28:41.328Z,12.30
2019-02-12T23:31:11.816Z,9.87
2019-02-12T23:38:56.991Z,14.45
2019-02-12T23:41:26.151Z,15.53
2019-02-12T23:43:55.209Z,16.83
2019-02-12T23:46:24.858Z,13.43
2019-02-12T23:51:35.490Z,16.05
2019-02-12T23:54:04.530Z,12.97
2019-02-12T23:56:36.974Z,13.15
2019-02-12T23:59:06.731Z,16.23
